Time;durP1;ratioP1;P1;durP2;ratioP2;P2;SDS_P1;SDS_P2;PMS_P1;PMS_P2;Temp;Humidity;BMP_temperature;BMP_pressure;BME280_temperature;BME280_humidity;BME280_pressure;Samples;Min_cycle;Max_cycle;Signal;HPM_P1;HPM_P2
2019/08/26 00:01:46;;;;;;;14.2;12.7;;;;;;;;;;;;;
2019/08/26 00:04:12;;;;;;;15.1;12.8;;;;;;;;;;;;;
2019/08/26 00:06:43;;;;;;;15.6;13.1;;;;;;;;;;;;;
2019/08/26 00:09:05;;;;;;;15.7;13.1;;;;;;;;;;;;;
2019/08/26 00:11:28;;;;;;;13.3;11.9;;;;;;;;;;;;;
2019/08/26 00:13:53;;;;;;;14.2;12.7;;;;;;;;;;;;;
2019/08/26 00:16:18;;;;;;;15.3;13.5;;;;;;;;;;;;;
2019/08/26 00:18:46;;;;;;;14.6;13.1;;;;;;;;;;;;;
2019/08/26 00:21:09;;;;;;;17.1;13.9;;;;;;;;;;;;;
2019/08/26 00:23:38;;;;;;;16.1;13.7;;;;;;;;;;;;;
2019/08/26 00:26:07;;;;;;;18.8;14.5;;;;;;;;;;;;;
2019/08/26 00:28:30;;;;;;;18.7;14.3;;;;;;;;;;;;;
2019/08/26 00:31:03;;;;;;;17.1;13.7;;;;;;;;;;;;;
2019/08/26 00:33:32;;;;;;;16.9;13.9;;;;;;;;;;;;;
2019/08/26 00:36:05;;;;;;;15.3;13.2;;;;;;;;;;;;;
2019/08/26 00:38:52;;;;;;;15.3;13.1;;;;;;;;;;;;;
2019/08/26 00:41:25;;;;;;;14.8;13;;;;;;;;;;;;;
2019/08/26 00:43:47;;;;;;;16.6;13.5;;;;;;;;;;;;;
2019/08/26 00:46:09;;;;;;;15.5;13.5;;;;;;;;;;;;;
2019/08/26 00:48:43;;;;;;;15.8;13.7;;;;;;;;;;;;;
2019/08/26 00:51:26;;;;;;;17.2;12.6;;;;;;;;;;;;;
2019/08/26 00:53:49;;;;;;;14.6;12.7;;;;;;;;;;;;;
2019/08/26 00:56:21;;;;;;;13.3;11.9;;;;;;;;;;;;;
2019/08/26 00:58:50;;;;;;;16.7;12.2;;;;;;;;;;;;;
2019/08/26 01:01:17;;;;;;;14.4;12.1;;;;;;;;;;;;;
2019/08/26 01:03:42;;;;;;;12.9;11.6;;;;;;;;;;;;;
2019/08/26 01:06:12;;;;;;;13.5;11.3;;;;;;;;;;;;;
2019/08/26 01:08:37;;;;;;;13.9;11.5;;;;;;;;;;;;;
2019/08/26 01:11:03;;;;;;;15.8;12.9;;;;;;;;;;;;;
2019/08/26 01:13:31;;;;;;;15.4;13.1;;;;;;;;;;;;;
2019/08/26 01:16:02;;;;;;;17.6;13.4;;;;;;;;;;;;;
2019/08/26 01:18:36;;;;;;;15.7;13.8;;;;;;;;;;;;;
2019/08/26 01:21:00;;;;;;;16.7;14.9;;;;;;;;;;;;;
2019/08/26 01:23:29;;;;;;;14.9;13.2;;;;;;;;;;;;;
2019/08/26 01:25:52;;;;;;;15.4;13.5;;;;;;;;;;;;;
2019/08/26 01:28:26;;;;;;;16.3;12.6;;;;;;;;;;;;;
2019/08/26 01:30:53;;;;;;;17.4;14.5;;;;;;;;;;;;;
2019/08/26 01:33:23;;;;;;;16;14.3;;;;;;;;;;;;;
2019/08/26 01:35:44;;;;;;;17.2;15;;;;;;;;;;;;;
2019/08/26 01:38:30;;;;;;;15.2;11.9;;;;;;;;;;;;;
2019/08/26 01:40:53;;;;;;;17.2;14.3;;;;;;;;;;;;;
2019/08/26 01:43:18;;;;;;;15.3;13.5;;;;;;;;;;;;;
2019/08/26 01:45:44;;;;;;;15;13.4;;;;;;;;;;;;;
2019/08/26 01:48:13;;;;;;;17;12.7;;;;;;;;;;;;;
2019/08/26 01:50:43;;;;;;;17.2;14.2;;;;;;;;;;;;;
2019/08/26 01:53:08;;;;;;;14.7;12.8;;;;;;;;;;;;;
2019/08/26 01:55:46;;;;;;;17.6;13.3;;;;;;;;;;;;;
2019/08/26 01:58:17;;;;;;;16.1;13.9;;;;;;;;;;;;;
2019/08/26 02:00:47;;;;;;;15.6;13.9;;;;;;;;;;;;;
2019/08/26 02:03:08;;;;;;;16.2;13.2;;;;;;;;;;;;;
2019/08/26 02:05:39;;;;;;;16.3;13.2;;;;;;;;;;;;;
2019/08/26 02:08:03;;;;;;;17.1;12.9;;;;;;;;;;;;;
2019/08/26 02:10:34;;;;;;;16.1;12.1;;;;;;;;;;;;;
2019/08/26 02:12:59;;;;;;;16.9;12.9;;;;;;;;;;;;;
2019/08/26 02:15:27;;;;;;;16.6;12.6;;;;;;;;;;;;;
2019/08/26 02:17:54;;;;;;;17.4;12.3;;;;;;;;;;;;;
2019/08/26 02:20:19;;;;;;;14.7;11.9;;;;;;;;;;;;;
2019/08/26 02:22:47;;;;;;;14.1;11.7;;;;;;;;;;;;;
2019/08/26 02:25:14;;;;;;;15.4;13.1;;;;;;;;;;;;;
2019/08/26 02:27:43;;;;;;;13.3;12;;;;;;;;;;;;;
2019/08/26 02:30:25;;;;;;;15.8;12.3;;;;;;;;;;;;;
2019/08/26 02:32:33;;;;;;;14.1;11.3;;;;;;;;;;;;;
2019/08/26 02:35:03;;;;;;;15.6;12.7;;;;;;;;;;;;;
2019/08/26 02:37:27;;;;;;;15.9;12.8;;;;;;;;;;;;;
2019/08/26 02:40:00;;;;;;;15.8;11.8;;;;;;;;;;;;;
2019/08/26 02:42:32;;;;;;;19.5;14.2;;;;;;;;;;;;;
2019/08/26 02:45:25;;;;;;;16.7;14.5;;;;;;;;;;;;;
2019/08/26 02:47:51;;;;;;;15.8;12.8;;;;;;;;;;;;;
2019/08/26 02:50:22;;;;;;;17.8;13.8;;;;;;;;;;;;;
2019/08/26 02:52:42;;;;;;;15.8;13.9;;;;;;;;;;;;;
2019/08/26 02:55:08;;;;;;;17.5;14.3;;;;;;;;;;;;;
2019/08/26 02:57:39;;;;;;;17.5;15.2;;;;;;;;;;;;;
2019/08/26 03:00:04;;;;;;;17.6;14.3;;;;;;;;;;;;;
2019/08/26 03:02:27;;;;;;;17.2;14.1;;;;;;;;;;;;;
2019/08/26 03:04:59;;;;;;;15.3;13.8;;;;;;;;;;;;;
2019/08/26 03:07:28;;;;;;;15.5;13.7;;;;;;;;;;;;;
2019/08/26 03:09:52;;;;;;;15.9;14;;;;;;;;;;;;;
2019/08/26 03:12:18;;;;;;;14.7;12.6;;;;;;;;;;;;;
2019/08/26 03:14:41;;;;;;;14.7;12.6;;;;;;;;;;;;;
2019/08/26 03:17:08;;;;;;;16.9;12.9;;;;;;;;;;;;;
2019/08/26 03:19:37;;;;;;;14.7;13.2;;;;;;;;;;;;;
2019/08/26 03:21:59;;;;;;;14.9;12.6;;;;;;;;;;;;;
2019/08/26 03:24:30;;;;;;;13.8;12.3;;;;;;;;;;;;;
2019/08/26 03:26:54;;;;;;;18.2;12.4;;;;;;;;;;;;;
2019/08/26 03:29:19;;;;;;;14.6;12.5;;;;;;;;;;;;;
2019/08/26 03:34:13;;;;;;;17.1;13.4;;;;;;;;;;;;;
2019/08/26 03:36:54;;;;;;;15.2;13.6;;;;;;;;;;;;;
2019/08/26 03:39:28;;;;;;;15;13.4;;;;;;;;;;;;;
2019/08/26 03:41:58;;;;;;;14.2;12.8;;;;;;;;;;;;;
2019/08/26 03:44:27;;;;;;;18.6;13.3;;;;;;;;;;;;;
2019/08/26 03:46:57;;;;;;;15.7;13.5;;;;;;;;;;;;;
2019/08/26 03:49:22;;;;;;;14.8;12.5;;;;;;;;;;;;;
2019/08/26 03:51:54;;;;;;;14.2;12.7;;;;;;;;;;;;;
2019/08/26 03:54:25;;;;;;;15.1;12.5;;;;;;;;;;;;;
2019/08/26 03:56:52;;;;;;;13.4;12;;;;;;;;;;;;;
2019/08/26 03:59:21;;;;;;;13.1;11.7;;;;;;;;;;;;;
2019/08/26 04:02:48;;;;;;;13.9;12.4;;;;;;;15.29;90.33496;942.2213;;;;
2019/08/26 04:05:18;;;;;;;13.9;12.5;;;;;;;15.27;90.27344;942.2164;;;;
2019/08/26 04:07:49;;;;;;;14.3;12.8;;;;;;;15.12;90.5791;942.2164;;;;
2019/08/26 04:10:30;;;;;;;13.3;11.9;;;;;;;15.12;90.54395;942.1514;;;;
2019/08/26 04:12:59;;;;;;;14.9;12.1;;;;;;;15.17;90.39355;942.1923;;;;
2019/08/26 04:15:21;;;;;;;16.1;12.4;;;;;;;15.29;89.97949;942.137;;;;
2019/08/26 04:17:54;;;;;;;12.6;11.3;;;;;;;15.36;89.26465;942.2748;;;;
2019/08/26 04:20:29;;;;;;;13.4;11.6;;;;;;;15.24;89.42578;942.2326;;;;
2019/08/26 04:23:21;;;;;;;14.2;11.7;;;;;;;15.13;89.99414;942.2292;;;;
2019/08/26 04:25:54;;;;;;;12.7;11.4;;;;;;;15.11;90.06934;942.2822;;;;
2019/08/26 04:28:24;;;;;;;15.1;12;;;;;;;15.09;90.07715;942.1964;;;;
2019/08/26 04:31:03;;;;;;;15;11.8;;;;;;;14.94;90.5293;942.2605;;;;
2019/08/26 04:33:40;;;;;;;14.1;12.6;;;;;;;14.85;91.5127;942.3247;;;;
2019/08/26 04:36:27;;;;;;;16.8;12.6;;;;;;;14.94;91.01367;942.2845;;;;
2019/08/26 04:39:07;;;;;;;17.6;13.8;;;;;;;14.85;91.40039;942.2229;;;;
2019/08/26 04:41:33;;;;;;;16.9;14.3;;;;;;;14.91;91.49316;942.3047;;;;
2019/08/26 04:44:24;;;;;;;16;14.2;;;;;;;15.04;91.21973;942.3658;;;;
2019/08/26 04:46:59;;;;;;;17;13.4;;;;;;;15.03;91.33301;942.3401;;;;
2019/08/26 04:49:19;;;;;;;14.5;13;;;;;;;15.21;90.70117;942.3486;;;;
2019/08/26 04:51:45;;;;;;;15;12.4;;;;;;;15.32;89.71973;942.3736;;;;
2019/08/26 04:54:17;;;;;;;13;11.2;;;;;;;15.35;89.19531;942.3519;;;;
2019/08/26 04:56:56;;;;;;;12.9;11.3;;;;;;;15.18;89.74707;942.3896;;;;
2019/08/26 04:59:32;;;;;;;12.6;11.3;;;;;;;15.27;89.3291;942.3777;;;;
2019/08/26 05:01:55;;;;;;;13.1;11.2;;;;;;;15.37;89.30371;942.3678;;;;
2019/08/26 05:04:39;;;;;;;12.1;10.8;;;;;;;15.44;88.82129;942.3455;;;;
2019/08/26 05:07:12;;;;;;;12.6;11.3;;;;;;;15.51;89.2041;942.3839;;;;
2019/08/26 05:09:53;;;;;;;17.1;10;;;;;;;15.54;88.32227;942.3636;;;;
2019/08/26 05:12:19;;;;;;;14.2;10.6;;;;;;;15.42;88.95508;942.2955;;;;
2019/08/26 05:14:50;;;;;;;12.4;11.2;;;;;;;15.46;89.18359;942.3968;;;;
2019/08/26 05:17:33;;;;;;;11.9;10.6;;;;;;;15.61;88.30176;942.387;;;;
2019/08/26 05:20:07;;;;;;;12.1;10.9;;;;;;;15.49;88.80762;942.3647;;;;
2019/08/26 05:22:46;;;;;;;15.8;11.6;;;;;;;15.58;89.72656;942.3956;;;;
2019/08/26 05:25:13;;;;;;;15.4;12.6;;;;;;;15.47;89.5293;942.3968;;;;
2019/08/26 05:27:53;;;;;;;19.2;11.9;;;;;;;15.49;89.60645;942.3831;;;;
2019/08/26 05:31:18;;;;;;;18.8;12.6;;;;;;;15.42;90.23633;942.372;;;;
2019/08/26 05:32:51;;;;;;;17.7;11.4;;;;;;;15.54;89.68457;942.3958;;;;
2019/08/26 05:35:30;;;;;;;15;11.4;;;;;;;15.75;89.62305;942.366;;;;
2019/08/26 05:38:06;;;;;;;12.7;10.2;;;;;;;15.8;88.33984;942.4115;;;;
2019/08/26 05:40:51;;;;;;;13.4;9.6;;;;;;;16.15;87.59961;942.3872;;;;
2019/08/26 05:43:10;;;;;;;9.5;8.1;;;;;;;16.17;86.63184;942.3935;;;;
2019/08/26 05:45:46;;;;;;;10.7;8.2;;;;;;;16.38;87.14746;942.4408;;;;
2019/08/26 05:48:21;;;;;;;11.3;7.6;;;;;;;17.08;83.54395;942.3574;;;;
2019/08/26 05:51:03;;;;;;;8.8;6.9;;;;;;;17.67;80.21973;942.3611;;;;
2019/08/26 05:53:31;;;;;;;7.7;6.9;;;;;;;18.21;78.73828;942.3359;;;;
2019/08/26 05:56:05;;;;;;;10.4;6.7;;;;;;;18.92;76.01465;942.2817;;;;
2019/08/26 05:58:43;;;;;;;9.6;7.1;;;;;;;19.19;74.45215;942.259;;;;
2019/08/26 06:04:06;;;;;;;9.7;7.1;;;;;;;20.33;71.59863;942.2963;;;;
2019/08/26 06:06:49;;;;;;;10.5;7;;;;;;;20.95;68.95215;942.3195;;;;
2019/08/26 06:09:14;;;;;;;7.8;6;;;;;;;21.08;67.94238;942.3427;;;;
2019/08/26 06:11:35;;;;;;;7.8;6.2;;;;;;;21.5;67.25684;942.2381;;;;
2019/08/26 06:14:09;;;;;;;9.5;6.8;;;;;;;21.85;66.51367;942.2056;;;;
2019/08/26 06:16:42;;;;;;;15;6.3;;;;;;;22.36;64.51465;942.2023;;;;
2019/08/26 06:19:12;;;;;;;9.9;5.9;;;;;;;22.8;63.49707;942.1814;;;;
2019/08/26 06:21:45;;;;;;;7.7;5.6;;;;;;;22.84;62.13965;942.1206;;;;
2019/08/26 06:24:24;;;;;;;11.3;6.3;;;;;;;23;62.44629;942.1535;;;;
2019/08/26 06:26:53;;;;;;;8.2;5.6;;;;;;;22.69;63.25879;942.1411;;;;
2019/08/26 06:29:23;;;;;;;8.9;5.3;;;;;;;23.31;61.77246;942.1301;;;;
2019/08/26 06:31:53;;;;;;;9.3;5.8;;;;;;;24.07;59.11035;942.1262;;;;
2019/08/26 06:34:28;;;;;;;7.2;5.2;;;;;;;24.54;56.11914;942.1241;;;;
2019/08/26 06:37:02;;;;;;;8.3;5.2;;;;;;;25.11;54.80859;942.1777;;;;
2019/08/26 06:39:35;;;;;;;8.8;5.2;;;;;;;25.36;55.14844;942.1766;;;;
2019/08/26 06:42:11;;;;;;;8.5;6;;;;;;;24.74;54.43555;942.171;;;;
2019/08/26 06:44:42;;;;;;;7;5.4;;;;;;;24.58;56.5957;942.1795;;;;
2019/08/26 06:47:17;;;;;;;11.4;6.3;;;;;;;24.04;58.92871;942.0989;;;;
2019/08/26 06:49:46;;;;;;;7.7;6.3;;;;;;;23.94;60.57617;942.0401;;;;
2019/08/26 06:52:22;;;;;;;7.4;5.7;;;;;;;23.58;60.53906;942.0207;;;;
2019/08/26 06:55:02;;;;;;;8.9;6.5;;;;;;;23.29;62.39258;942.0308;;;;
2019/08/26 06:57:39;;;;;;;9.1;7;;;;;;;23.66;63.97266;941.981;;;;
2019/08/26 07:00:10;;;;;;;9.7;6.5;;;;;;;24.02;60.25781;942.0097;;;;
2019/08/26 07:02:34;;;;;;;8.7;6.3;;;;;;;23.41;60.01074;942.0154;;;;
2019/08/26 07:05:06;;;;;;;13.8;6.5;;;;;;;23.77;65.58984;941.9786;;;;
2019/08/26 07:07:36;;;;;;;8.6;6.1;;;;;;;24.23;60.15527;941.9787;;;;
2019/08/26 07:10:10;;;;;;;7;5.4;;;;;;;24.27;61.96387;941.9684;;;;
2019/08/26 07:12:40;;;;;;;6.5;4.9;;;;;;;24.64;58.34961;941.959;;;;
2019/08/26 07:15:17;;;;;;;5.1;4.6;;;;;;;25.18;55.32617;941.9317;;;;
2019/08/26 07:17:51;;;;;;;5.2;4.6;;;;;;;25.29;57.32324;941.8063;;;;
2019/08/26 07:20:19;;;;;;;6.3;4.7;;;;;;;25.82;56.23242;941.8275;;;;
2019/08/26 07:23:05;;;;;;;7.2;5;;;;;;;25.74;52.61816;941.7941;;;;
2019/08/26 07:25:38;;;;;;;5.3;4.8;;;;;;;26.17;56.48926;941.7872;;;;
2019/08/26 07:28:07;;;;;;;5.1;4.5;;;;;;;26.55;50.40527;941.8045;;;;
2019/08/26 07:30:43;;;;;;;5.2;4.7;;;;;;;27.37;52.33594;941.7997;;;;
2019/08/26 07:33:08;;;;;;;6.1;4.6;;;;;;;28.23;48.57324;941.8502;;;;
2019/08/26 07:35:33;;;;;;;4.5;4.1;;;;;;;29.17;49.06641;941.8519;;;;
2019/08/26 07:38:09;;;;;;;5.6;4.5;;;;;;;29.59;47.94434;941.7911;;;;
2019/08/26 07:40:48;;;;;;;4.9;4.3;;;;;;;29.88;41.2959;941.7883;;;;
2019/08/26 07:43:27;;;;;;;5.9;4.5;;;;;;;29.89;43.4082;941.7662;;;;
2019/08/26 07:45:55;;;;;;;4.6;4.1;;;;;;;30.03;41.72656;941.6925;;;;
2019/08/26 07:48:27;;;;;;;5.9;4.3;;;;;;;30.31;41.21582;941.7456;;;;
2019/08/26 07:51:06;;;;;;;6;3.9;;;;;;;30.89;42.21289;941.7154;;;;
2019/08/26 07:53:40;;;;;;;4;3.6;;;;;;;31.58;42.37305;941.7639;;;;
2019/08/26 07:56:15;;;;;;;6.2;3.9;;;;;;;32.06;39.1582;941.7009;;;;
2019/08/26 07:58:54;;;;;;;4.5;4;;;;;;;31.99;40.7334;941.6933;;;;
2019/08/26 08:01:36;;;;;;;4.5;3.8;;;;;;;32.64;40.46777;941.7194;;;;
2019/08/26 08:04:14;;;;;;;6.2;3.9;;;;;;;32.09;37.80566;941.6539;;;;
2019/08/26 08:06:53;;;;;;;4.2;3.8;;;;;;;31.38;40.42676;941.6942;;;;
2019/08/26 08:09:29;;;;;;;6.1;4;;;;;;;31.97;41.75098;941.6205;;;;
2019/08/26 08:12:04;;;;;;;5.5;3.5;;;;;;;32.69;36.24805;941.6167;;;;
2019/08/26 08:14:35;;;;;;;5.1;3.5;;;;;;;32.1;36.38086;941.6298;;;;
2019/08/26 08:17:04;;;;;;;4.2;3.6;;;;;;;32.4;36.67969;941.6124;;;;
2019/08/26 08:19:40;;;;;;;4.8;3.4;;;;;;;33.17;38.60449;941.6197;;;;
2019/08/26 08:22:14;;;;;;;4.4;3.3;;;;;;;33.13;38.2168;941.601;;;;
2019/08/26 08:24:54;;;;;;;3.7;3.3;;;;;;;32.86;37.24609;941.591;;;;
2019/08/26 08:27:40;;;;;;;4.5;3.2;;;;;;;32.19;40.35547;941.4963;;;;
2019/08/26 08:30:11;;;;;;;5.2;3.2;;;;;;;32.78;38.2959;941.5259;;;;
2019/08/26 08:32:44;;;;;;;4.2;3.2;;;;;;;33.13;39.26172;941.4907;;;;
2019/08/26 08:35:12;;;;;;;4.9;3.2;;;;;;;33.84;35.55664;941.4957;;;;
2019/08/26 08:37:37;;;;;;;3.5;3.2;;;;;;;34.29;32.71387;941.4341;;;;
2019/08/26 08:40:10;;;;;;;6;2.8;;;;;;;34.7;34.15332;941.4311;;;;
2019/08/26 08:42:36;;;;;;;4.8;3.3;;;;;;;34.58;34.50586;941.4017;;;;
2019/08/26 08:45:19;;;;;;;3.6;3.3;;;;;;;34.32;33.66797;941.3589;;;;
2019/08/26 08:47:50;;;;;;;4.5;3.1;;;;;;;33.83;35.42285;941.4014;;;;
2019/08/26 08:50:37;;;;;;;4.5;3.3;;;;;;;33.38;35.14844;941.3928;;;;
2019/08/26 08:52:58;;;;;;;3.8;3.3;;;;;;;33.05;34.87109;941.3455;;;;
2019/08/26 08:55:26;;;;;;;4.2;3.6;;;;;;;33.43;35.28516;941.2856;;;;
2019/08/26 08:57:50;;;;;;;4.3;3.2;;;;;;;32.28;40.08789;941.3189;;;;
2019/08/26 09:00:33;;;;;;;4.7;3.7;;;;;;;31.93;39.99707;941.3459;;;;
2019/08/26 09:03:11;;;;;;;5.3;3.7;;;;;;;32.43;37.05469;941.3417;;;;
2019/08/26 09:05:42;;;;;;;4;3.6;;;;;;;32.7;36.63184;941.3475;;;;
2019/08/26 09:08:18;;;;;;;5.2;3.5;;;;;;;32.01;37.95508;941.27;;;;
2019/08/26 09:11:30;;;;;;;4.7;3.7;;;;;;;30.77;42.66797;941.2516;;;;
2019/08/26 09:14:04;;;;;;;4.7;3.8;;;;;;;30.23;42.33008;941.3198;;;;
2019/08/26 09:16:34;;;;;;;4.2;3.8;;;;;;;30.81;41.48828;941.2219;;;;
2019/08/26 09:19:07;;;;;;;4.9;4;;;;;;;30.56;46.43457;941.2209;;;;
2019/08/26 09:21:33;;;;;;;4.8;4.3;;;;;;;29.66;46.56934;941.2916;;;;
2019/08/26 09:24:22;;;;;;;4.4;4;;;;;;;28.77;49.95215;941.33;;;;
2019/08/26 09:26:48;;;;;;;5.7;4.1;;;;;;;28.91;45.95605;941.2924;;;;
2019/08/26 09:29:22;;;;;;;5.4;4.3;;;;;;;28.91;48.61133;941.2583;;;;
2019/08/26 09:32:01;;;;;;;8.1;4.7;;;;;;;28.89;47.10938;941.2466;;;;
2019/08/26 09:34:39;;;;;;;10.1;4.8;;;;;;;28.87;51.96289;941.2625;;;;
2019/08/26 09:37:20;;;;;;;6.3;5;;;;;;;28.67;50.82129;941.26;;;;
2019/08/26 09:40:34;;;;;;;6.4;4.4;;;;;;;28.25;48.26758;941.2072;;;;
2019/08/26 09:43:02;;;;;;;6.4;5.3;;;;;;;28.17;53.41504;941.1783;;;;
2019/08/26 09:45:38;;;;;;;5.4;4.9;;;;;;;28.41;51.20801;941.165;;;;
2019/08/26 09:48:07;;;;;;;7.3;5;;;;;;;28.77;51.30859;941.1595;;;;
2019/08/26 09:50:44;;;;;;;6;5.1;;;;;;;29.01;48.53711;941.1218;;;;
2019/08/26 09:53:22;;;;;;;6.6;4.8;;;;;;;29.04;48.31543;941.1512;;;;
2019/08/26 09:55:44;;;;;;;9.4;5.7;;;;;;;28.97;51.86719;941.1065;;;;
2019/08/26 09:58:24;;;;;;;7.4;4.7;;;;;;;28.86;49.05664;941.1214;;;;
2019/08/26 10:00:53;;;;;;;5.9;4.9;;;;;;;28.83;50.96973;941.0675;;;;
2019/08/26 10:03:20;;;;;;;5.8;5.2;;;;;;;28.94;47.44727;941.0184;;;;
2019/08/26 10:05:43;;;;;;;6.2;5.4;;;;;;;28.85;46.59277;941.0411;;;;
2019/08/26 10:08:27;;;;;;;7.7;5.7;;;;;;;29.23;44.60645;940.9745;;;;
2019/08/26 10:11:09;;;;;;;7.6;5;;;;;;;29.73;47.55469;940.9285;;;;
2019/08/26 10:13:41;;;;;;;5.5;5;;;;;;;29.75;47.77051;940.9486;;;;
2019/08/26 10:16:07;;;;;;;5.7;5.2;;;;;;;29.81;47.71777;940.9531;;;;
2019/08/26 10:18:44;;;;;;;7.7;5.6;;;;;;;29.63;46.09082;940.9228;;;;
2019/08/26 10:21:22;;;;;;;6.6;5.8;;;;;;;29.75;50.82422;940.9117;;;;
2019/08/26 10:23:55;;;;;;;5.6;5.1;;;;;;;30.17;48.16211;940.8858;;;;
2019/08/26 10:26:32;;;;;;;5.7;5.2;;;;;;;30.58;45.3623;940.8134;;;;
2019/08/26 10:29:20;;;;;;;6.2;5.3;;;;;;;30.79;44.68945;940.8117;;;;
2019/08/26 10:31:51;;;;;;;6.8;5.6;;;;;;;31.32;45.125;940.81;;;;
2019/08/26 10:34:15;;;;;;;7.9;5.1;;;;;;;31.3;44.63281;940.782;;;;
2019/08/26 10:36:43;;;;;;;8.4;5.1;;;;;;;31.25;43.66992;940.8303;;;;
2019/08/26 10:39:20;;;;;;;8.7;5.3;;;;;;;31.6;43.0459;940.7174;;;;
2019/08/26 10:41:55;;;;;;;5.7;5.2;;;;;;;31.61;43.23926;940.687;;;;
2019/08/26 10:44:22;;;;;;;6.5;5.2;;;;;;;31.7;42.82715;940.6669;;;;
2019/08/26 10:46:59;;;;;;;6;5.4;;;;;;;31.77;42.81055;940.7064;;;;
2019/08/26 10:49:36;;;;;;;10.8;5.9;;;;;;;31.54;42.60938;940.7078;;;;
2019/08/26 10:52:10;;;;;;;7.6;5.9;;;;;;;31.51;44.5332;940.6895;;;;
2019/08/26 10:54:52;;;;;;;7.9;5.4;;;;;;;31.65;43.55273;940.6266;;;;
2019/08/26 10:57:25;;;;;;;6.9;5.6;;;;;;;31.61;43.41797;940.6403;;;;
2019/08/26 10:59:58;;;;;;;6.5;5.9;;;;;;;31.85;43.45313;940.6434;;;;
2019/08/26 11:02:23;;;;;;;6.4;5.7;;;;;;;31.91;41.67285;940.5594;;;;
2019/08/26 11:04:52;;;;;;;6.4;5.7;;;;;;;32.02;42.04297;940.5976;;;;
2019/08/26 11:07:30;;;;;;;6;5.4;;;;;;;31.92;41.44629;940.5586;;;;
2019/08/26 11:10:11;;;;;;;6.8;6;;;;;;;31.94;43.01855;940.5516;;;;
2019/08/26 11:12:47;;;;;;;7.1;5.9;;;;;;;32.08;41.36523;940.5853;;;;
2019/08/26 11:15:51;;;;;;;7.4;6.6;;;;;;;31.79;40.88379;940.6131;;;;
2019/08/26 11:18:24;;;;;;;6.2;5.6;;;;;;;31.99;42.00488;940.5898;;;;
2019/08/26 11:21:00;;;;;;;6.7;6;;;;;;;31.99;41.71582;940.5681;;;;
2019/08/26 11:23:30;;;;;;;6.8;6.1;;;;;;;32.2;40.95703;940.6166;;;;
2019/08/26 11:26:08;;;;;;;8.7;5.8;;;;;;;32.29;41.83984;940.6219;;;;
2019/08/26 11:28:37;;;;;;;8.1;5.7;;;;;;;32.13;41.44141;940.5969;;;;
2019/08/26 11:31:13;;;;;;;8;5.5;;;;;;;31.95;41.5918;940.5167;;;;
2019/08/26 11:33:56;;;;;;;8.3;5.8;;;;;;;31.78;43.19434;940.4398;;;;
2019/08/26 11:36:21;;;;;;;6.3;5.7;;;;;;;31.52;43.66016;940.4313;;;;
2019/08/26 11:39:01;;;;;;;6.9;6.2;;;;;;;30.97;46;940.4659;;;;
2019/08/26 11:41:29;;;;;;;7.2;6.5;;;;;;;30.82;47.75293;940.4199;;;;
2019/08/26 11:43:58;;;;;;;7.5;6.4;;;;;;;30.88;47.91406;940.4665;;;;
2019/08/26 11:46:26;;;;;;;8.6;6.8;;;;;;;30.56;48.17871;940.4734;;;;
2019/08/26 11:48:51;;;;;;;7.3;6.7;;;;;;;30.38;49.4375;940.4127;;;;
2019/08/26 11:51:56;;;;;;;7.3;6.6;;;;;;;30.53;48.41504;940.4597;;;;
2019/08/26 11:54:25;;;;;;;7;6.3;;;;;;;30.24;49.25488;940.4511;;;;
2019/08/26 11:57:13;;;;;;;8.1;6.9;;;;;;;29.93;49.6748;940.5164;;;;
2019/08/26 12:02:12;;;;;;;8.9;6.4;;;;;;;29.76;49.93164;940.4774;;;;
2019/08/26 12:04:54;;;;;;;7.6;6.9;;;;;;;29.4;50.60645;940.4623;;;;
2019/08/26 12:07:30;;;;;;;7.7;7;;;;;;;29.03;50.50391;940.5613;;;;
2019/08/26 12:10:03;;;;;;;7.4;6.7;;;;;;;28.65;53.0791;940.4964;;;;
2019/08/26 12:12:42;;;;;;;8.5;7.4;;;;;;;28.6;52.84668;940.4846;;;;
2019/08/26 12:15:25;;;;;;;9.2;7.4;;;;;;;28.65;51.85352;940.476;;;;
2019/08/26 12:17:35;;;;;;;8.7;7.2;;;;;;;28.53;53.06543;940.4841;;;;
2019/08/26 12:20:02;;;;;;;8;7.2;;;;;;;28.65;52.70996;940.473;;;;
2019/08/26 12:22:34;;;;;;;8.1;7.3;;;;;;;28.84;52.13867;940.4055;;;;
2019/08/26 12:25:19;;;;;;;8.8;8;;;;;;;29.04;51.53027;940.4318;;;;
2019/08/26 12:27:29;;;;;;;8.6;7.8;;;;;;;29.31;53.0498;940.3943;;;;
2019/08/26 12:29:53;;;;;;;8.2;7.4;;;;;;;29.62;54.87402;940.4194;;;;
2019/08/26 12:32:21;;;;;;;8.5;7.7;;;;;;;29.26;52.9248;940.4874;;;;
2019/08/26 12:34:47;;;;;;;9.3;8;;;;;;;29.11;53.41895;940.5402;;;;
2019/08/26 12:37:15;;;;;;;9.3;8.4;;;;;;;28.86;53.98535;940.5554;;;;
2019/08/26 12:39:55;;;;;;;8.6;7.8;;;;;;;28.6;54.13184;940.5603;;;;
2019/08/26 12:42:35;;;;;;;9.1;8.3;;;;;;;28.26;54.29297;940.5483;;;;
2019/08/26 12:45:01;;;;;;;9.7;8.5;;;;;;;27.84;56.0957;940.5726;;;;
2019/08/26 12:47:38;;;;;;;10.2;8.6;;;;;;;27.49;57.46191;940.5017;;;;
2019/08/26 12:50:25;;;;;;;9.4;8.5;;;;;;;26.9;58.9043;940.53;;;;
2019/08/26 12:53:10;;;;;;;10.6;8.9;;;;;;;26.51;60.10938;940.4807;;;;
2019/08/26 12:55:45;;;;;;;10.6;9.2;;;;;;;26.46;61.81836;940.4799;;;;
2019/08/26 12:58:17;;;;;;;10.2;8.8;;;;;;;26.34;61.73145;940.508;;;;
2019/08/26 13:00:50;;;;;;;10.5;9;;;;;;;26.47;61.35645;940.5361;;;;
2019/08/26 13:03:35;;;;;;;9.9;9;;;;;;;26.42;62.14355;940.5562;;;;
2019/08/26 13:06:07;;;;;;;10.7;9.4;;;;;;;25.83;65.34766;940.5583;;;;
2019/08/26 13:08:44;;;;;;;11.9;10.1;;;;;;;25.54;67.68164;940.4875;;;;
2019/08/26 13:11:17;;;;;;;11.7;10.4;;;;;;;25.42;70.40234;940.4285;;;;
2019/08/26 13:13:47;;;;;;;11.2;10.1;;;;;;;25.42;71.20508;940.4682;;;;
2019/08/26 13:16:13;;;;;;;12;10.8;;;;;;;25.58;70.7959;940.4619;;;;
2019/08/26 13:18:45;;;;;;;15.2;10.7;;;;;;;25.7;69.40625;940.4695;;;;
2019/08/26 13:21:11;;;;;;;11.1;10;;;;;;;25.57;69.71777;940.5139;;;;
2019/08/26 13:23:53;;;;;;;11.7;10.5;;;;;;;25.5;66.54004;940.4961;;;;
2019/08/26 13:26:25;;;;;;;11.4;10.2;;;;;;;25.19;66.66016;940.4455;;;;
2019/08/26 13:29:21;;;;;;;11;9.8;;;;;;;25.27;67.98145;940.4504;;;;
2019/08/26 13:31:55;;;;;;;10.8;9.7;;;;;;;25.17;66.61035;940.4522;;;;
2019/08/26 13:34:26;;;;;;;10.4;9.5;;;;;;;25.33;67.74414;940.3989;;;;
2019/08/26 13:37:05;;;;;;;11;9.9;;;;;;;25.44;66.83789;940.4343;;;;
2019/08/26 13:39:42;;;;;;;10.6;9.5;;;;;;;25.53;65.97754;940.4197;;;;
2019/08/26 13:42:24;;;;;;;8.3;7.6;;;;;;;25.4;63.95117;940.4016;;;;
2019/08/26 13:45:23;;;;;;;8.5;7.6;;;;;;;25.34;65.66699;940.4073;;;;
2019/08/26 13:47:29;;;;;;;11.2;7.6;;;;;;;25.37;65.30566;940.4295;;;;
2019/08/26 13:50:05;;;;;;;7.7;7;;;;;;;25.07;63.39746;940.4034;;;;
2019/08/26 13:52:44;;;;;;;8.5;7.7;;;;;;;25.13;67.32324;940.4455;;;;
2019/08/26 13:55:22;;;;;;;6.6;6;;;;;;;24.79;65.92871;940.5042;;;;
2019/08/26 13:58:00;;;;;;;8.1;6.7;;;;;;;24.51;70.22656;940.4998;;;;
2019/08/26 14:00:36;;;;;;;9.8;7.5;;;;;;;24.45;72.37109;940.4894;;;;
2019/08/26 14:03:05;;;;;;;9.8;7.7;;;;;;;24.57;71.54297;940.5673;;;;
2019/08/26 14:05:32;;;;;;;10.7;8.9;;;;;;;24.6;73.36328;940.5173;;;;
2019/08/26 14:08:06;;;;;;;9.4;8.4;;;;;;;24.64;73.05176;940.5289;;;;
2019/08/26 14:10:42;;;;;;;10;8.2;;;;;;;24.78;72.08203;940.5273;;;;
2019/08/26 14:13:07;;;;;;;8.4;7.5;;;;;;;24.87;71.62598;940.5694;;;;
2019/08/26 14:15:33;;;;;;;13.4;8.6;;;;;;;24.92;71.9873;940.5773;;;;
2019/08/26 14:18:18;;;;;;;8.6;7.6;;;;;;;24.86;71.74121;940.5382;;;;
2019/08/26 14:20:51;;;;;;;9;7.8;;;;;;;24.91;71.71484;940.5262;;;;
2019/08/26 14:23:24;;;;;;;11.9;7.8;;;;;;;24.92;71.56445;940.4825;;;;
2019/08/26 14:25:54;;;;;;;10.6;7.5;;;;;;;24.88;71.54395;940.4989;;;;
2019/08/26 14:28:29;;;;;;;8.9;8;;;;;;;24.55;71.60938;940.5235;;;;
2019/08/26 14:31:01;;;;;;;8.2;7.1;;;;;;;24.3;70.65137;940.5748;;;;
2019/08/26 14:33:34;;;;;;;8.8;7.9;;;;;;;24.34;72.17676;940.6547;;;;
2019/08/26 14:36:08;;;;;;;11.4;8.7;;;;;;;24.33;73.4834;940.6786;;;;
2019/08/26 14:38:36;;;;;;;9.6;8.6;;;;;;;23.75;72.8584;940.6584;;;;
2019/08/26 14:41:12;;;;;;;10.4;8.8;;;;;;;23.46;72.58789;940.6311;;;;
2019/08/26 14:43:45;;;;;;;11.4;8.9;;;;;;;23.43;71.73535;940.6082;;;;
2019/08/26 14:46:18;;;;;;;9.7;8.7;;;;;;;23.35;71.49902;940.6749;;;;
2019/08/26 14:48:39;;;;;;;9.9;8.4;;;;;;;22.89;72.75195;940.688;;;;
2019/08/26 14:51:17;;;;;;;10.3;8.8;;;;;;;22.88;73.13965;940.6403;;;;
2019/08/26 14:53:51;;;;;;;10.7;9.2;;;;;;;22.89;73.50391;940.6903;;;;
2019/08/26 14:56:18;;;;;;;10.3;8.9;;;;;;;22.55;73.82227;940.6816;;;;
2019/08/26 14:58:44;;;;;;;12.4;8.7;;;;;;;22.51;73.92188;940.6845;;;;
2019/08/26 15:01:13;;;;;;;11.1;8.9;;;;;;;22.56;74.59863;940.678;;;;
2019/08/26 15:05:11;;;;;;;14.4;9.3;;;;;;;22.82;74.7832;940.6553;;;;
2019/08/26 15:07:45;;;;;;;11.2;9.4;;;;;;;22.77;74.91699;940.6932;;;;
2019/08/26 15:10:10;;;;;;;11.2;9.9;;;;;;;22.69;75.50293;940.6298;;;;
2019/08/26 15:12:41;;;;;;;14.4;10.1;;;;;;;22.98;74.96387;940.6428;;;;
2019/08/26 15:15:14;;;;;;;13.5;9.7;;;;;;;22.99;74.17773;940.639;;;;
2019/08/26 15:17:41;;;;;;;10.4;9.3;;;;;;;22.9;74.29395;940.6234;;;;
2019/08/26 15:20:29;;;;;;;10.7;9.1;;;;;;;22.7;74.34277;940.6678;;;;
2019/08/26 15:23:00;;;;;;;15.4;9;;;;;;;22.73;73.47852;940.6756;;;;
2019/08/26 15:25:26;;;;;;;9.5;8.5;;;;;;;22.72;73.00586;940.6965;;;;
2019/08/26 15:28:20;;;;;;;9.5;8.5;;;;;;;22.78;71.88965;940.7009;;;;
2019/08/26 15:30:52;;;;;;;12.3;8.2;;;;;;;22.89;72.45898;940.7644;;;;
2019/08/26 15:33:23;;;;;;;14.1;9.1;;;;;;;23.09;72.09277;940.7495;;;;
2019/08/26 15:35:50;;;;;;;11.3;8.2;;;;;;;23.28;70.39453;940.736;;;;
2019/08/26 15:38:22;;;;;;;10.1;7.7;;;;;;;22.98;69.94824;940.8157;;;;
2019/08/26 15:40:51;;;;;;;10.8;7.8;;;;;;;23.34;69.72363;940.9002;;;;
2019/08/26 15:43:28;;;;;;;10.3;7.4;;;;;;;23.26;68.39453;940.8649;;;;
2019/08/26 15:46:00;;;;;;;9.2;7.6;;;;;;;23.56;67.34668;940.7918;;;;
2019/08/26 15:48:51;;;;;;;8.9;7.5;;;;;;;23.38;67.21387;940.8467;;;;
2019/08/26 15:51:24;;;;;;;9.5;7.4;;;;;;;23.42;67.52441;940.7991;;;;
2019/08/26 15:54:02;;;;;;;9.8;7.5;;;;;;;23.41;67.06348;940.8223;;;;
2019/08/26 15:56:34;;;;;;;9.6;7.5;;;;;;;23.87;68.16992;940.7802;;;;
2019/08/26 15:59:16;;;;;;;11.6;7.1;;;;;;;23.82;65.32715;940.7428;;;;
2019/08/26 16:01:49;;;;;;;11;7.9;;;;;;;23.89;66.16016;940.6877;;;;
2019/08/26 16:04:23;;;;;;;11.5;7.7;;;;;;;24;65.8125;940.6956;;;;
2019/08/26 16:07:03;;;;;;;8.8;7.4;;;;;;;24.06;66.25586;940.6552;;;;
2019/08/26 16:09:38;;;;;;;9.6;7.9;;;;;;;24.25;66.11914;940.6744;;;;